Time;durP1;ratioP1;P1;durP2;ratioP2;P2;SDS_P1;SDS_P2;PMS_P1;PMS_P2;Temp;Humidity;BMP_temperature;BMP_pressure;BME280_temperature;BME280_humidity;BME280_pressure;Samples;Min_cycle;Max_cycle;Signal;HPM_P1;HPM_P2
2022/02/09 00:09:00;;;;;;;33.45;18.20;;;;;;;;;;5029825;28;20032;-79
2022/02/09 00:11:31;;;;;;;31.92;18.50;;;;;;;;;;5032643;28;20013;-76
2022/02/09 00:14:06;;;;;;;38.45;20.63;;;;;;;;;;5010634;28;20499;-77
2022/02/09 00:19:36;;;;;;;30.70;17.60;;;;;;;;;;4994749;28;20538;-80
2022/02/09 00:27:40;;;;;;;30.02;17.17;;;;;;;;;;5014151;28;20030;-78
2022/02/09 01:57:17;;;;;;;9.82;4.85;;;;;;;;;;4987396;28;20059;-78
2022/02/09 01:59:44;;;;;;;11.40;5.45;;;;;;;;;;5031878;28;20026;-75
2022/02/09 02:02:10;;;;;;;11.32;5.18;;;;;;;;;;5013691;28;21225;-75
2022/02/09 02:04:37;;;;;;;13.40;7.18;;;;;;;;;;4995112;28;20044;-76
2022/02/09 02:07:09;;;;;;;9.98;6.20;;;;;;;;;;5025627;28;20061;-75
2022/02/09 02:09:37;;;;;;;14.93;5.70;;;;;;;;;;5019307;28;20039;-75
2022/02/09 02:12:15;;;;;;;11.32;5.88;;;;;;;;;;4994804;28;20065;-75
2022/02/09 02:14:52;;;;;;;11.45;6.38;;;;;;;;;;5008089;28;20022;-75
2022/02/09 02:19:51;;;;;;;9.40;5.25;;;;;;;;;;5031365;28;20053;-75
2022/02/09 02:28:13;;;;;;;11.25;5.93;;;;;;;;;;5012161;28;20157;-75
2022/02/09 03:20:41;;;;;;;9.40;4.55;;;;;;;;;;5026444;28;20036;-75
2022/02/09 03:52:08;;;;;;;10.93;5.47;;;;;;;;;;5033984;28;20025;-75
2022/02/09 03:57:28;;;;;;;8.80;4.65;;;;;;;;;;5034039;28;20036;-75
2022/02/09 03:59:56;;;;;;;14.00;4.93;;;;;;;;;;5032464;28;20491;-75
2022/02/09 04:02:22;;;;;;;13.07;6.15;;;;;;;;;;5014700;28;20029;-75
2022/02/09 04:04:54;;;;;;;10.90;5.18;;;;;;;;;;5020705;28;20101;-75
2022/02/09 04:07:21;;;;;;;5.43;3.53;;;;;;;;;;4997241;28;20022;-75
2022/02/09 04:09:50;;;;;;;10.45;5.05;;;;;;;;;;5014465;28;20034;-75
2022/02/09 04:15:03;;;;;;;11.27;4.57;;;;;;;;;;5030412;28;20083;-75
2022/02/09 04:17:38;;;;;;;13.70;4.85;;;;;;;;;;5015538;28;20052;-75
2022/02/09 04:36:51;;;;;;;8.48;6.00;;;;;;;;;;5014289;28;20559;-75
2022/02/09 04:39:28;;;;;;;11.27;4.50;;;;;;;;;;5028446;28;20021;-75
2022/02/09 04:42:44;;;;;;;15.25;6.53;;;;;;;;;;5015343;28;20017;-75
2022/02/09 04:47:47;;;;;;;33.17;13.88;;;;;;;;;;5032641;28;20072;-76
2022/02/09 04:55:49;;;;;;;36.60;19.73;;;;;;;;;;5004308;28;20121;-76
2022/02/09 04:58:37;;;;;;;40.38;20.25;;;;;;;;;;5033100;28;20027;-76
2022/02/09 05:27:47;;;;;;;22.70;16.98;;;;;;;;;;5032360;28;20040;-75
2022/02/09 05:30:13;;;;;;;29.70;17.83;;;;;;;;;;4996625;28;20041;-75
2022/02/09 05:32:39;;;;;;;29.67;17.60;;;;;;;;;;5012662;28;20384;-75
2022/02/09 05:35:06;;;;;;;27.95;16.95;;;;;;;;;;5013110;28;20050;-75
2022/02/09 05:37:32;;;;;;;26.73;17.05;;;;;;;;;;4995462;28;20033;-75
2022/02/09 05:39:58;;;;;;;26.17;15.30;;;;;;;;;;5020049;28;20025;-75
2022/02/09 05:42:24;;;;;;;34.90;16.63;;;;;;;;;;5006985;28;20037;-75
2022/02/09 05:44:50;;;;;;;35.60;17.60;;;;;;;;;;5025192;28;20022;-75
2022/02/09 05:50:09;;;;;;;32.67;16.88;;;;;;;;;;5012469;28;20045;-75
2022/02/09 05:57:53;;;;;;;34.53;18.02;;;;;;;;;;5025153;28;20088;-77
2022/02/09 06:00:19;;;;;;;32.85;18.90;;;;;;;;;;4996926;28;20034;-75
2022/02/09 06:02:46;;;;;;;38.15;20.00;;;;;;;;;;4995079;28;20136;-75
2022/02/09 06:05:16;;;;;;;38.08;20.00;;;;;;;;;;4995006;28;20457;-75
2022/02/09 06:07:42;;;;;;;37.72;18.38;;;;;;;;;;5023896;28;20722;-75
2022/02/09 06:10:19;;;;;;;47.90;20.35;;;;;;;;;;5013248;28;20080;-84
2022/02/09 06:12:53;;;;;;;51.17;18.27;;;;;;;;;;5013688;28;20057;-75
2022/02/09 06:15:48;;;;;;;53.67;31.50;;;;;;;;;;5013762;28;20014;-83
2022/02/09 06:20:57;;;;;;;52.05;30.90;;;;;;;;;;5031496;28;20080;-76
2022/02/09 06:23:24;;;;;;;67.32;36.88;;;;;;;;;;5000942;28;20109;-77
2022/02/09 06:25:50;;;;;;;68.22;36.75;;;;;;;;;;5024698;28;20533;-76
2022/02/09 06:28:16;;;;;;;102.25;48.13;;;;;;;;;;5013642;28;20022;-75
2022/02/09 06:30:42;;;;;;;93.65;53.47;;;;;;;;;;5030758;28;20033;-76
2022/02/09 06:33:08;;;;;;;83.20;51.92;;;;;;;;;;4995264;28;20022;-76
2022/02/09 06:35:34;;;;;;;76.85;49.30;;;;;;;;;;5030687;28;20018;-76
2022/02/09 06:38:02;;;;;;;65.22;36.70;;;;;;;;;;5031337;28;20021;-76
2022/02/09 06:40:29;;;;;;;66.50;38.92;;;;;;;;;;5031597;28;20026;-75
2022/02/09 06:42:55;;;;;;;60.58;40.50;;;;;;;;;;5030962;28;20021;-77
2022/02/09 06:45:32;;;;;;;53.80;34.40;;;;;;;;;;5013551;28;20496;-77
2022/02/09 06:47:58;;;;;;;56.42;32.53;;;;;;;;;;5030579;28;20040;-79
2022/02/09 06:50:33;;;;;;;62.25;33.30;;;;;;;;;;5007883;28;20034;-87
2022/02/09 06:53:13;;;;;;;57.95;35.08;;;;;;;;;;4995053;28;20064;-77
2022/02/09 06:55:53;;;;;;;71.72;38.65;;;;;;;;;;5013113;28;20117;-77
2022/02/09 06:58:23;;;;;;;95.43;59.30;;;;;;;;;;5010214;28;20033;-78
2022/02/09 07:00:49;;;;;;;94.55;45.50;;;;;;;;;;5013300;28;20095;-77
2022/02/09 07:03:15;;;;;;;94.65;50.78;;;;;;;;;;5015063;28;20097;-76
2022/02/09 07:05:41;;;;;;;80.63;41.42;;;;;;;;;;5000366;28;20080;-77
2022/02/09 07:08:07;;;;;;;77.60;34.15;;;;;;;;;;5011028;28;20022;-77
2022/02/09 07:10:35;;;;;;;37.00;21.20;;;;;;;;;;5001577;28;20034;-77
2022/02/09 07:13:01;;;;;;;42.30;21.33;;;;;;;;;;5011661;28;20093;-77
2022/02/09 07:15:32;;;;;;;22.10;13.82;;;;;;;;;;4994467;28;20022;-77
2022/02/09 07:18:04;;;;;;;30.83;16.80;;;;;;;;;;4994351;28;20103;-78
2022/02/09 07:20:40;;;;;;;39.63;17.73;;;;;;;;;;4993523;28;20030;-77
2022/02/09 07:23:13;;;;;;;29.98;17.75;;;;;;;;;;4992366;28;20053;-76
2022/02/09 07:25:46;;;;;;;29.52;16.20;;;;;;;;;;5011180;28;20022;-80
2022/02/09 07:28:12;;;;;;;40.35;18.85;;;;;;;;;;5022771;28;20164;-79
2022/02/09 07:30:38;;;;;;;28.45;15.68;;;;;;;;;;5011186;28;20095;-79
2022/02/09 07:33:05;;;;;;;37.95;18.83;;;;;;;;;;5010617;28;20112;-80
2022/02/09 07:35:31;;;;;;;54.17;21.65;;;;;;;;;;5011544;28;20021;-81
2022/02/09 07:37:58;;;;;;;40.47;19.30;;;;;;;;;;5014308;28;20022;-79
2022/02/09 07:40:24;;;;;;;36.88;16.48;;;;;;;;;;5016194;28;20360;-78
2022/02/09 07:42:57;;;;;;;31.30;17.75;;;;;;;;;;5013173;28;20021;-78
2022/02/09 07:45:56;;;;;;;44.67;20.73;;;;;;;;;;5015998;28;20025;-78
2022/02/09 07:54:01;;;;;;;35.00;17.50;;;;;;;;;;5021355;28;20061;-79
2022/02/09 07:56:28;;;;;;;26.38;14.63;;;;;;;;;;5013008;28;20373;-79
2022/02/09 07:58:55;;;;;;;27.65;12.95;;;;;;;;;;5007673;28;20484;-79
2022/02/09 08:01:22;;;;;;;26.42;8.07;;;;;;;;;;5012475;28;20025;-80
2022/02/09 08:03:48;;;;;;;14.75;5.85;;;;;;;;;;5007537;28;20045;-78
2022/02/09 08:06:14;;;;;;;8.80;5.00;;;;;;;;;;5000758;28;20370;-80
2022/02/09 08:08:43;;;;;;;7.75;4.05;;;;;;;;;;5012065;28;20021;-85
2022/02/09 08:34:39;;;;;;;15.02;8.32;;;;;;;;;;5033493;28;20079;-79
2022/02/09 08:37:07;;;;;;;14.70;8.32;;;;;;;;;;5014657;28;20021;-78
2022/02/09 08:39:33;;;;;;;15.63;7.95;;;;;;;;;;5032826;28;20100;-79
2022/02/09 08:41:59;;;;;;;10.85;5.40;;;;;;;;;;5008980;28;20125;-79
2022/02/09 08:44:26;;;;;;;13.13;6.95;;;;;;;;;;5007196;28;20083;-78
2022/02/09 08:46:52;;;;;;;17.83;6.88;;;;;;;;;;5009169;28;20113;-81
2022/02/09 08:49:18;;;;;;;14.93;6.60;;;;;;;;;;5002992;28;20026;-78
2022/02/09 08:51:44;;;;;;;11.50;5.38;;;;;;;;;;5001184;28;20026;-78
2022/02/09 08:54:11;;;;;;;15.80;7.88;;;;;;;;;;5015056;28;20460;-78
2022/02/09 08:56:38;;;;;;;19.88;10.70;;;;;;;;;;5007759;28;20022;-79
2022/02/09 08:59:05;;;;;;;18.17;9.98;;;;;;;;;;5014788;28;20439;-79
2022/02/09 09:01:41;;;;;;;19.05;11.10;;;;;;;;;;5012003;28;20021;-78
2022/02/09 09:04:23;;;;;;;39.00;15.63;;;;;;;;;;5029794;28;20054;-78
2022/02/09 09:06:55;;;;;;;33.47;12.98;;;;;;;;;;5028089;28;20045;-78
2022/02/09 09:15:43;;;;;;;18.80;10.05;;;;;;;;;;5030041;28;20036;-78
2022/02/09 10:04:37;;;;;;;21.95;12.80;;;;;;;;;;5028504;28;20036;-80
2022/02/09 10:35:18;;;;;;;17.67;9.05;;;;;;;;;;5022060;28;20059;-81
2022/02/09 10:37:44;;;;;;;22.08;9.63;;;;;;;;;;5031139;28;20018;-78
2022/02/09 10:40:26;;;;;;;17.95;8.95;;;;;;;;;;5031265;28;20531;-82
2022/02/09 10:42:58;;;;;;;22.15;10.98;;;;;;;;;;5030589;28;20480;-78
2022/02/09 10:45:35;;;;;;;17.88;9.82;;;;;;;;;;5012251;28;20476;-84
2022/02/09 10:48:02;;;;;;;17.25;9.82;;;;;;;;;;5004012;28;20084;-82
2022/02/09 10:50:34;;;;;;;21.20;12.93;;;;;;;;;;5031576;28;20033;-82
2022/02/09 10:53:01;;;;;;;19.58;11.43;;;;;;;;;;5013751;28;20472;-80
2022/02/09 10:55:37;;;;;;;16.95;10.30;;;;;;;;;;5013743;28;20048;-78
2022/02/09 10:58:07;;;;;;;24.30;11.35;;;;;;;;;;5028685;28;20025;-78
2022/02/09 11:00:34;;;;;;;16.25;8.43;;;;;;;;;;5004285;28;20026;-79
2022/02/09 11:03:00;;;;;;;14.88;10.00;;;;;;;;;;5011942;28;20026;-79
2022/02/09 11:05:26;;;;;;;17.17;10.05;;;;;;;;;;5013509;28;20436;-79
2022/02/09 11:07:54;;;;;;;23.20;10.68;;;;;;;;;;5011746;28;20018;-77
2022/02/09 11:10:20;;;;;;;11.23;6.45;;;;;;;;;;5012804;28;20030;-79
2022/02/09 11:12:47;;;;;;;23.23;10.48;;;;;;;;;;5012196;28;20108;-79
2022/02/09 11:15:18;;;;;;;16.50;8.52;;;;;;;;;;5034453;28;20029;-77
2022/02/09 11:17:47;;;;;;;17.35;10.07;;;;;;;;;;5034165;28;20393;-80
2022/02/09 11:20:19;;;;;;;21.00;9.63;;;;;;;;;;5012491;28;20022;-79
2022/02/09 11:22:45;;;;;;;22.15;8.80;;;;;;;;;;5021216;28;20033;-79
2022/02/09 11:25:25;;;;;;;25.02;9.35;;;;;;;;;;5020887;28;20068;-79
2022/02/09 11:28:11;;;;;;;17.90;7.55;;;;;;;;;;5015268;28;20503;-77
2022/02/09 11:30:45;;;;;;;16.20;9.20;;;;;;;;;;5029526;28;20113;-79
2022/02/09 11:36:01;;;;;;;18.50;11.02;;;;;;;;;;5034298;28;20036;-79
2022/02/09 11:38:43;;;;;;;21.08;11.52;;;;;;;;;;5034390;28;20045;-80
2022/02/09 11:41:13;;;;;;;28.63;14.30;;;;;;;;;;5036368;28;20060;-85
2022/02/09 11:43:44;;;;;;;29.38;16.45;;;;;;;;;;5034423;28;20028;-78
2022/02/09 11:46:38;;;;;;;33.67;15.57;;;;;;;;;;5034020;28;20033;-77
2022/02/09 12:10:50;;;;;;;19.05;10.02;;;;;;;;;;5028710;28;20546;-79
2022/02/09 12:13:47;;;;;;;20.80;11.13;;;;;;;;;;5026151;28;20068;-78
2022/02/09 12:19:03;;;;;;;14.70;7.70;;;;;;;;;;5033521;28;20044;-79
2022/02/09 12:21:50;;;;;;;16.20;9.10;;;;;;;;;;5015764;28;20032;-78
2022/02/09 12:24:19;;;;;;;13.90;8.40;;;;;;;;;;5015236;28;20025;-78
2022/02/09 12:27:12;;;;;;;19.20;10.55;;;;;;;;;;5016550;28;20481;-79
2022/02/09 12:29:42;;;;;;;16.70;11.30;;;;;;;;;;5014774;28;20401;-77
2022/02/09 12:32:14;;;;;;;23.55;11.55;;;;;;;;;;4996579;28;20484;-77
2022/02/09 12:34:43;;;;;;;22.25;12.45;;;;;;;;;;4996123;28;20032;-77
2022/02/09 12:37:13;;;;;;;22.20;11.85;;;;;;;;;;5014336;28;20100;-78
2022/02/09 12:39:53;;;;;;;17.83;9.88;;;;;;;;;;4996733;28;20026;-77
2022/02/09 12:42:20;;;;;;;15.73;9.63;;;;;;;;;;5014366;28;20030;-79
2022/02/09 12:44:58;;;;;;;23.40;13.18;;;;;;;;;;5000624;28;20022;-77
2022/02/09 12:47:31;;;;;;;27.23;10.10;;;;;;;;;;5032941;28;20370;-78
2022/02/09 12:49:58;;;;;;;19.48;8.27;;;;;;;;;;5029922;28;20029;-80
2022/02/09 12:52:26;;;;;;;22.77;8.68;;;;;;;;;;5032087;28;20092;-78
2022/02/09 12:55:03;;;;;;;26.10;11.55;;;;;;;;;;5033644;28;20040;-78
2022/02/09 12:57:39;;;;;;;14.55;9.10;;;;;;;;;;5016438;28;20029;-78
2022/02/09 13:00:07;;;;;;;16.58;9.63;;;;;;;;;;5034681;28;20021;-77
2022/02/09 13:02:44;;;;;;;18.38;10.13;;;;;;;;;;5039152;28;20022;-77
2022/02/09 13:05:10;;;;;;;14.73;10.27;;;;;;;;;;5028629;28;20477;-78
2022/02/09 13:07:36;;;;;;;13.32;8.07;;;;;;;;;;5013153;28;20025;-79
2022/02/09 13:10:03;;;;;;;14.85;9.50;;;;;;;;;;5013061;28;20120;-76
2022/02/09 13:12:30;;;;;;;14.50;8.68;;;;;;;;;;4995408;28;20054;-76
2022/02/09 13:15:06;;;;;;;18.95;10.68;;;;;;;;;;5014349;28;20025;-78
2022/02/09 13:25:59;;;;;;;9.43;7.33;;;;;;;;;;5018165;28;20496;-76
2022/02/09 13:52:30;;;;;;;16.25;9.48;;;;;;;;;;5025983;28;20056;-79
2022/02/09 14:13:44;;;;;;;19.23;10.77;;;;;;;;;;5027668;28;20551;-80
2022/02/09 14:35:35;;;;;;;15.38;13.18;;;;;;;;;;5015281;28;20091;-79
2022/02/09 14:54:35;;;;;;;15.93;14.18;;;;;;;;;;5014569;28;20049;-78
2022/02/09 14:57:06;;;;;;;14.45;12.15;;;;;;;;;;5002699;28;20049;-80
2022/02/09 15:02:10;;;;;;;18.83;14.02;;;;;;;;;;5034163;28;20468;-78
2022/02/09 15:17:32;;;;;;;20.10;12.45;;;;;;;;;;5031196;28;20056;-79
2022/02/09 15:22:39;;;;;;;31.55;16.35;;;;;;;;;;5021727;28;20030;-78
2022/02/09 15:25:14;;;;;;;31.55;16.15;;;;;;;;;;5015818;28;20029;-79
2022/02/09 15:27:40;;;;;;;39.80;20.80;;;;;;;;;;5016493;28;20096;-78
2022/02/09 15:30:07;;;;;;;31.95;20.05;;;;;;;;;;5010088;28;20040;-79
2022/02/09 15:32:40;;;;;;;32.03;17.55;;;;;;;;;;5010928;28;20018;-80
2022/02/09 15:35:42;;;;;;;;;;;;;;;;;;5004571;28;20025;-79
2022/02/09 15:56:59;;;;;;;70.35;40.55;;;;;;;;;;5029657;28;20032;-77
2022/02/09 16:23:51;;;;;;;122.03;75.80;;;;;;;;;;5031734;28;20060;-79
2022/02/09 16:37:45;;;;;;;120.40;74.75;;;;;;;;;;5031583;28;21544;-78
2022/02/09 16:45:30;;;;;;;115.50;64.20;;;;;;;;;;5031310;28;20033;-80
2022/02/09 16:48:01;;;;;;;145.35;81.70;;;;;;;;;;5013082;28;20021;-80
2022/02/09 16:50:36;;;;;;;136.10;75.20;;;;;;;;;;5006569;28;20033;-78
2022/02/09 16:53:19;;;;;;;127.00;61.20;;;;;;;;;;5014178;28;20022;-77
2022/02/09 17:19:52;;;;;;;368.08;233.93;;;;;;;;;;5032253;28;20106;-79
2022/02/09 17:22:18;;;;;;;225.93;153.90;;;;;;;;;;5014427;28;20029;-78
2022/02/09 17:24:45;;;;;;;309.98;208.88;;;;;;;;;;5014025;28;20031;-77
2022/02/09 17:27:17;;;;;;;263.73;177.20;;;;;;;;;;5010613;28;20029;-77
2022/02/09 17:32:23;;;;;;;154.95;107.95;;;;;;;;;;5030942;28;20051;-78
2022/02/09 17:35:04;;;;;;;286.08;189.68;;;;;;;;;;5017560;28;20021;-79
2022/02/09 17:38:04;;;;;;;315.40;203.02;;;;;;;;;;5007869;28;20017;-78
2022/02/09 17:56:53;;;;;;;425.05;291.90;;;;;;;;;;5027272;28;20064;-84
2022/02/09 17:59:24;;;;;;;441.25;299.13;;;;;;;;;;5012827;28;20480;-79
2022/02/09 18:01:50;;;;;;;358.90;247.95;;;;;;;;;;5024671;28;20026;-77
2022/02/09 18:04:18;;;;;;;411.60;282.17;;;;;;;;;;5007635;28;20544;-78
2022/02/09 18:06:53;;;;;;;341.58;238.20;;;;;;;;;;5012041;28;20048;-78
2022/02/09 18:09:27;;;;;;;243.77;160.07;;;;;;;;;;5012703;28;20464;-78
2022/02/09 18:12:14;;;;;;;263.30;184.50;;;;;;;;;;5011404;28;20040;-78
2022/02/09 18:26:02;;;;;;;220.82;150.88;;;;;;;;;;5011183;28;20160;-78
2022/02/09 18:30:57;;;;;;;360.95;240.75;;;;;;;;;;5010735;28;20447;-78
2022/02/09 18:44:20;;;;;;;350.67;227.52;;;;;;;;;;5024864;28;19952;-79
2022/02/09 19:03:00;;;;;;;364.90;244.05;;;;;;;;;;5022262;28;20033;-80
2022/02/09 19:05:39;;;;;;;353.88;228.48;;;;;;;;;;5014807;28;20032;-79
2022/02/09 19:19:24;;;;;;;346.50;238.95;;;153.60;2252.80;;;;;;5015773;28;20084;-85
2022/02/09 19:33:25;;;;;;;310.67;196.57;;;;;;;;;;4936903;29;20055;-83
2022/02/09 19:46:49;;;;;;;346.90;225.93;;;;;;;;;;5021821;28;20056;-80
2022/02/09 19:54:48;;;;;;;391.10;259.08;;;;;;;;;;5029164;28;20032;-80
2022/02/09 19:57:15;;;;;;;416.85;269.05;;;;;;;;;;5016547;28;20032;-80
2022/02/09 19:59:42;;;;;;;382.55;253.35;;;128.60;2252.80;;;;;;5013740;28;20049;-77
2022/02/09 20:02:09;;;;;;;314.45;212.02;;;128.40;2252.80;;;;;;5018383;28;20029;-78
2022/02/09 20:04:38;;;;;;;318.33;216.75;;;128.40;2252.80;;;;;;5018458;28;20021;-76
2022/02/09 20:07:03;;;;;;;397.20;268.92;;;128.30;2252.80;;;;;;5025812;28;20029;-76
2022/02/09 20:09:30;;;;;;;328.80;225.00;;;;;;;;;;5030561;28;20384;-76
2022/02/09 20:11:56;;;;;;;307.75;208.68;;;;;;;;;;5006489;28;20025;-76
2022/02/09 20:14:22;;;;;;;360.08;238.13;;;;;;;;;;5019101;28;20072;-76
2022/02/09 20:16:48;;;;;;;325.30;224.60;;;;;;;;;;5014547;28;20029;-76
2022/02/09 20:19:14;;;;;;;520.20;359.98;;;;;;;;;;4998809;28;20129;-78
2022/02/09 20:21:41;;;;;;;375.83;251.90;;;;;;;;;;5014736;28;20365;-75
2022/02/09 20:24:13;;;;;;;282.70;189.90;;;128.20;2252.80;;;;;;5002405;28;20488;-75
2022/02/09 20:26:39;;;;;;;562.90;396.60;;;128.00;2252.80;;;;;;5014122;28;20076;-75
2022/02/09 20:29:10;;;;;;;434.67;301.70;;;128.00;2252.80;;;;;;5025990;28;20026;-77
2022/02/09 20:32:42;;;;;;;483.17;344.77;;;128.00;2252.80;;;;;;5023840;28;20038;-76
2022/02/09 20:34:36;;;;;;;301.13;194.63;;;103.30;2227.20;;;;;;5007572;28;20077;-77
2022/02/09 20:37:02;;;;;;;251.30;173.18;;;103.30;2227.20;;;;;;5021556;28;20132;-77
2022/02/09 20:39:36;;;;;;;212.55;131.38;;;;;;;;;;5003283;28;20381;-77
2022/02/09 20:42:03;;;;;;;124.72;80.75;;;;;;;;;;4996895;28;20466;-77
2022/02/09 20:44:35;;;;;;;135.35;72.88;;;103.20;2227.20;;;;;;5012875;28;20037;-77
2022/02/09 20:47:01;;;;;;;120.00;75.75;;;;;;;;;;5002778;28;20161;-77
2022/02/09 20:49:28;;;;;;;99.97;61.60;;;;;;;;;;5014050;28;20116;-77
2022/02/09 20:51:54;;;;;;;102.03;60.10;;;;;;;;;;5006322;28;20350;-77
2022/02/09 20:54:20;;;;;;;52.63;36.75;;;;;;;;;;5013859;28;20145;-76
2022/02/09 20:56:46;;;;;;;101.72;67.50;;;;;;;;;;5001629;28;20037;-77
2022/02/09 20:59:15;;;;;;;116.55;72.43;;;;;;;;;;5014464;28;20018;-76
2022/02/09 21:04:14;;;;;;;96.10;58.17;;;;;;;;;;5015539;28;20374;-77
2022/02/09 21:09:24;;;;;;;96.05;59.70;;;;;;;;;;5025394;28;20048;-76
2022/02/09 21:12:03;;;;;;;120.65;74.90;;;;;;;;;;5030876;28;20047;-76
2022/02/09 21:15:06;;;;;;;157.95;96.93;;;;;;;;;;5011951;28;20068;-75
2022/02/09 21:18:06;;;;;;;126.47;86.25;;;;;;;;;;5025706;28;20159;-76
2022/02/09 21:50:43;;;;;;;215.65;146.98;;;;;;;;;;5030172;28;20112;-76
2022/02/09 21:53:12;;;;;;;240.55;161.93;;;;;;;;;;5027906;28;20140;-76
2022/02/09 21:58:31;;;;;;;373.20;248.27;;;77.40;2227.20;;;;;;5028704;28;20021;-76
2022/02/09 22:00:55;;;;;;;388.35;263.15;;;;;;;;;;5030919;28;20125;-75
2022/02/09 22:06:23;;;;;;;385.50;254.65;;;;;;;;;;5023407;28;19912;-78
2022/02/09 22:20:18;;;;;;;374.45;262.33;;;;;;;;;;5022446;28;21222;-76
2022/02/09 22:27:43;;;;;;;251.48;165.75;;;;;;;;;;5012407;28;20489;-76
2022/02/09 22:34:05;;;;;;;286.48;193.73;;;;;;;;;;5030948;28;20083;-76
2022/02/09 22:49:37;;;;;;;308.40;200.35;;;;;;;;;;5012296;28;20477;-76
2022/02/09 22:55:13;;;;;;;295.48;187.88;;;;;;;;;;4970263;28;20541;-76
2022/02/09 23:00:14;;;;;;;272.45;174.02;;;;;;;;;;5001280;28;20029;-76
2022/02/09 23:02:46;;;;;;;253.55;162.77;;;;;;;;;;5012155;28;20026;-76
2022/02/09 23:05:34;;;;;;;226.27;141.27;;;;;;;;;;5014408;28;20480;-75
2022/02/09 23:11:20;;;;;;;147.10;87.70;;;;;;;;;;5034689;28;20473;-76
2022/02/09 23:13:22;;;;;;;117.20;71.10;;;;;;;;;;5023703;28;20169;-75
2022/02/09 23:24:29;;;;;;;63.38;38.40;;;;;;;;;;4992480;28;20133;-76
2022/02/09 23:53:11;;;;;;;86.50;50.90;;;;;;;;;;5034104;28;20090;-76
